Joplin, MO

8:18 AM CST on December 04, 2016 (GMT -0600)
Joplin Regional | | Change Station

Elev 981 ft 37.15 °N, 94.50 °W | Updated 25 minutes ago

Light Rain
Light Rain Mist
40 °F
Feels Like 40 °F
N
0
Wind Variable Wind from North

Today
High -- | Low -- °F
--% Chance of Precip.
Yesterday
High -- | Low -- °F
Precip. -- in
Pressure 30.04 in
Visibility 5.0 miles
Clouds Mostly Cloudy 800 ft
Overcast 1000 ft
Dew Point 40 °F
Humidity 100%
Rainfall 0.17 in
Snow Depth Not available.
7:16 AM 5:00 PM
Waxing Crescent, 23% visible
METAR KJLN 041353Z 00000KT 5SM -RA BR BKN008 OVC010 04/04 A3003 RMK AO2 SLP171 P0002 T00440044
Pressure 30.04 in
Visibility 5.0 miles
Clouds Mostly Cloudy 800 ft
Overcast 1000 ft
Dew Point 40 °F
Humidity 100%
Rainfall 0.17 in
Snow Depth Not available.
7:16 AM 5:00 PM
Waxing Crescent, 23% visible
METAR KJLN 041353Z 00000KT 5SM -RA BR BKN008 OVC010 04/04 A3003 RMK AO2 SLP171 P0002 T00440044

10-Day Weather Forecast

Almanac

Astronomy

Dec. 04, 2016 Rise Set
Actual Time
Civil Twilight
Nautical Twilight
Astronomical Twilight
Moon
Length of Visible Light
Length of Day
Tomorrow will be .
, % of the Moon is Illuminated

Today's Extremes

State Highs State Lows

Community

WunderPhotos

Upload Photos

1,955,598 photos uploaded!

WunderBlog® & News

Nearby

Air Quality

  Air Quality AQ Index Pollutant
Not available.

Snow Depth

Station Depth Elevation

Earthquake Activity

City Distance Mag. Time & Date
Minimum magnitude displayed is 2.5.

Coastal Water Temperatures

Place Temperature

Stations

Nearby Weather Stations

Station Location Temp. Windchill Dew Point Humidity Wind Precip. Elev Updated Type
                   

Watches & Warnings

There are currently no watches in effect.